Time;durP1;ratioP1;P1;durP2;ratioP2;P2;SDS_P1;SDS_P2;PMS_P1;PMS_P2;Temp;Humidity;BMP_temperature;BMP_pressure;BME280_temperature;BME280_humidity;BME280_pressure;Samples;Min_cycle;Max_cycle;Signal;HPM_P1;HPM_P2
2023/06/24 00:00:06;;;;;;;6.93;3.70;;;;;;;22.51;58.95;101967.63;5071085;28;20040;-66
2023/06/24 00:02:36;;;;;;;8.32;4.07;;;;;;;22.11;59.71;101970.59;5064318;28;20036;-66
2023/06/24 00:05:05;;;;;;;;;;;;;;;22.14;59.92;101969.91;5056527;28;20160;-67
2023/06/24 00:07:32;;;;;;;7.97;3.90;;;;;;;22.37;59.29;101959.63;5060663;28;19920;-65
2023/06/24 00:09:59;;;;;;;7.03;4.13;;;;;;;22.29;59.28;101964.28;5058518;28;20158;-66
2023/06/24 00:12:26;;;;;;;9.35;4.40;;;;;;;22.34;59.06;101955.59;5057310;28;20037;-66
2023/06/24 00:14:54;;;;;;;6.88;4.18;;;;;;;22.22;59.85;101960.47;5074651;28;20051;-65
2023/06/24 00:17:21;;;;;;;9.82;4.22;;;;;;;22.28;59.86;101959.81;5076852;28;20049;-65
2023/06/24 00:19:48;;;;;;;9.20;4.35;;;;;;;22.22;60.23;101950.06;5070462;28;20056;-65
2023/06/24 00:22:16;;;;;;;9.07;5.10;;;;;;;22.30;60.13;101959.47;5065855;28;20127;-65
2023/06/24 00:24:43;;;;;;;9.07;4.75;;;;;;;22.42;59.46;101962.16;5074890;28;20056;-65
2023/06/24 00:27:10;;;;;;;7.72;4.53;;;;;;;22.18;60.11;101960.38;5074716;28;20055;-65
2023/06/24 00:29:37;;;;;;;7.95;4.55;;;;;;;21.78;61.45;101959.69;5073165;28;20049;-65
2023/06/24 00:32:05;;;;;;;6.82;4.20;;;;;;;21.50;62.40;101961.66;5072634;28;20055;-65
2023/06/24 00:34:33;;;;;;;6.30;4.00;;;;;;;21.63;61.49;101960.47;5073548;28;20052;-66
2023/06/24 00:37:02;;;;;;;5.78;3.90;;;;;;;21.50;61.50;101956.06;5067160;28;20057;-66
2023/06/24 00:39:30;;;;;;;7.38;4.15;;;;;;;21.41;61.83;101958.19;5052357;28;20053;-65
2023/06/24 00:41:57;;;;;;;6.80;4.43;;;;;;;21.58;61.50;101960.72;5053076;28;20041;-65
2023/06/24 00:44:24;;;;;;;6.68;4.00;;;;;;;21.56;61.04;101959.44;5052914;28;20049;-66
2023/06/24 00:46:53;;;;;;;7.30;4.28;;;;;;;21.55;60.93;101958.59;5061591;28;20045;-65
2023/06/24 00:49:21;;;;;;;7.55;4.03;;;;;;;21.53;61.18;101957.34;5053766;28;20044;-65
2023/06/24 00:51:50;;;;;;;5.95;4.03;;;;;;;21.51;60.92;101952.09;5070871;28;20057;-66
2023/06/24 00:54:17;;;;;;;8.35;3.95;;;;;;;21.65;60.48;101946.91;5056216;28;21086;-66
2023/06/24 00:56:45;;;;;;;7.35;4.05;;;;;;;21.60;60.12;101951.94;5072495;28;20219;-65
2023/06/24 00:59:15;;;;;;;6.13;3.67;;;;;;;21.48;60.11;101954.81;5072297;28;20514;-65
2023/06/24 01:01:45;;;;;;;6.63;3.60;;;;;;;21.64;59.81;101956.47;5056799;28;20064;-66
2023/06/24 01:04:13;;;;;;;9.23;4.15;;;;;;;21.71;58.75;101958.66;5054239;28;20057;-65
2023/06/24 01:06:43;;;;;;;7.40;3.97;;;;;;;21.65;59.09;101960.91;5053976;28;20053;-65
2023/06/24 01:09:12;;;;;;;9.63;3.97;;;;;;;21.76;58.67;101962.00;5060783;28;20056;-65
2023/06/24 01:11:40;;;;;;;8.15;4.07;;;;;;;21.55;58.93;101960.63;5060289;28;20045;-65
2023/06/24 01:14:07;;;;;;;9.93;4.47;;;;;;;21.24;59.81;101964.94;5052685;28;20057;-65
2023/06/24 01:16:47;;;;;;;6.78;4.07;;;;;;;21.41;59.43;101961.00;5059849;28;20061;-65
2023/06/24 01:19:33;;;;;;;10.88;4.45;;;;;;;21.47;59.21;101959.59;5070006;28;20407;-65
2023/06/24 01:22:21;;;;;;;6.15;4.18;;;;;;;21.39;59.53;101954.13;5041664;28;20052;-64
2023/06/24 01:25:24;;;;;;;7.13;4.20;;;;;;;21.25;59.37;101946.94;5051672;28;20056;-63
2023/06/24 01:28:24;;;;;;;7.78;4.18;;;;;;;21.30;59.66;101943.09;5069095;28;20771;-65
2023/06/24 01:31:19;;;;;;;8.80;4.13;;;;;;;21.37;59.69;101942.47;5037181;28;20057;-64
2023/06/24 01:33:49;;;;;;;6.53;4.25;;;;;;;21.43;59.51;101941.06;5053307;28;20049;-66
2023/06/24 01:36:20;;;;;;;6.70;4.40;;;;;;;21.32;59.81;101940.75;5065454;28;21039;-64
2023/06/24 01:39:17;;;;;;;7.72;4.68;;;;;;;21.31;60.20;101941.91;5055242;28;20119;-65
2023/06/24 01:41:53;;;;;;;9.70;4.55;;;;;;;21.21;60.50;101942.41;5067393;28;20064;-65
2023/06/24 01:44:21;;;;;;;7.38;4.25;;;;;;;21.34;60.39;101943.19;5071917;28;20060;-65
2023/06/24 01:46:51;;;;;;;7.45;4.30;;;;;;;21.49;59.59;101946.03;5053365;28;20052;-65
2023/06/24 01:49:19;;;;;;;6.75;4.10;;;;;;;21.43;59.93;101946.66;5070996;28;20053;-64
2023/06/24 01:51:49;;;;;;;5.78;3.90;;;;;;;21.28;60.63;101945.41;5071806;28;20040;-64
2023/06/24 01:54:22;;;;;;;6.75;3.85;;;;;;;20.94;61.48;101935.56;5053096;28;20068;-66
2023/06/24 01:56:52;;;;;;;7.00;4.15;;;;;;;20.90;62.25;101939.44;5053951;28;20059;-65
2023/06/24 01:59:21;;;;;;;8.13;4.10;;;;;;;21.02;61.63;101939.44;5049461;28;20057;-61
2023/06/24 02:01:48;;;;;;;7.93;4.20;;;;;;;21.11;61.60;101934.50;5034930;28;20048;-61
2023/06/24 02:04:18;;;;;;;6.68;4.00;;;;;;;20.80;62.24;101943.53;5051732;28;20048;-62
2023/06/24 02:06:46;;;;;;;6.82;4.10;;;;;;;20.63;62.27;101942.97;5053717;28;20056;-61
2023/06/24 02:09:15;;;;;;;7.72;4.00;;;;;;;20.82;62.35;101938.38;5051590;28;20063;-65
2023/06/24 02:11:43;;;;;;;9.02;4.15;;;;;;;20.92;61.42;101937.09;5053514;28;20052;-63
2023/06/24 02:14:12;;;;;;;9.02;4.03;;;;;;;20.96;60.87;101938.81;5071671;28;20059;-64
2023/06/24 02:16:42;;;;;;;5.95;3.97;;;;;;;20.84;61.20;101944.47;5080630;28;20059;-65
2023/06/24 02:19:10;;;;;;;6.65;4.28;;;;;;;20.67;62.14;101943.91;5068853;28;20045;-60
2023/06/24 02:21:40;;;;;;;5.97;4.15;;;;;;;20.70;61.92;101958.00;5051306;28;20041;-61
2023/06/24 02:24:08;;;;;;;8.98;5.25;;;;;;;20.71;62.19;101948.44;5053119;28;20041;-61
2023/06/24 02:26:40;;;;;;;9.18;5.25;;;;;;;20.72;62.06;101946.44;5051254;28;20060;-61
2023/06/24 02:29:11;;;;;;;8.23;5.28;;;;;;;20.62;62.43;101947.75;5052385;28;20059;-60
2023/06/24 02:31:38;;;;;;;12.27;5.40;;;;;;;20.48;62.83;101949.28;5056974;28;20488;-66
2023/06/24 02:34:06;;;;;;;9.57;5.15;;;;;;;20.43;63.23;101947.53;5072109;28;20049;-64
2023/06/24 02:36:35;;;;;;;8.90;5.22;;;;;;;20.61;62.93;101959.28;5070777;28;20056;-65
2023/06/24 02:39:04;;;;;;;9.40;5.30;;;;;;;20.73;62.45;101951.69;5053903;28;20040;-61
2023/06/24 02:41:31;;;;;;;7.60;4.78;;;;;;;20.78;62.13;101951.47;5036488;28;20260;-66
2023/06/24 02:43:58;;;;;;;8.30;4.82;;;;;;;20.52;63.03;101948.22;5062028;28;20061;-65
2023/06/24 02:46:29;;;;;;;7.95;5.25;;;;;;;20.82;62.34;101949.59;5054654;28;20056;-60
2023/06/24 02:48:57;;;;;;;11.25;5.00;;;;;;;20.73;62.32;101939.72;5057529;28;20056;-60
2023/06/24 02:51:25;;;;;;;9.30;5.18;;;;;;;20.82;62.11;101940.38;5056344;28;20500;-60
2023/06/24 02:53:54;;;;;;;9.00;4.47;;;;;;;20.73;62.48;101948.09;5054920;28;20052;-61
2023/06/24 02:56:32;;;;;;;8.27;4.75;;;;;;;20.90;62.23;101950.63;5054704;28;20504;-65
2023/06/24 02:58:59;;;;;;;10.85;5.32;;;;;;;20.88;61.99;101947.38;5072293;28;20412;-66
2023/06/24 03:01:27;;;;;;;6.45;4.38;;;;;;;20.72;62.19;101950.09;5070134;28;20048;-64
2023/06/24 03:03:56;;;;;;;7.47;4.60;;;;;;;20.71;61.99;101944.84;5053898;28;20048;-60
2023/06/24 03:06:27;;;;;;;8.55;4.82;;;;;;;20.67;62.79;101941.91;5041017;28;20052;-60
2023/06/24 03:08:58;;;;;;;5.95;3.97;;;;;;;20.79;62.37;101943.88;5061533;28;20059;-65
2023/06/24 03:11:27;;;;;;;6.88;4.10;;;;;;;20.75;62.40;101943.75;5070753;28;20064;-60
2023/06/24 03:13:57;;;;;;;7.32;4.03;;;;;;;20.81;62.05;101947.16;5055040;28;20052;-66
2023/06/24 03:16:36;;;;;;;8.52;4.20;;;;;;;20.87;61.91;101940.16;5061248;28;20048;-61
2023/06/24 03:19:15;;;;;;;8.30;4.30;;;;;;;20.75;61.52;101948.53;5035432;28;20049;-60
2023/06/24 03:21:43;;;;;;;6.30;3.95;;;;;;;20.54;62.15;101940.28;5050111;28;20303;-61
2023/06/24 03:24:12;;;;;;;5.88;4.00;;;;;;;20.36;63.14;101946.50;5039775;28;20052;-60
2023/06/24 03:26:41;;;;;;;8.02;3.92;;;;;;;20.42;62.73;101945.06;5055436;28;20053;-64
2023/06/24 03:29:12;;;;;;;8.93;4.07;;;;;;;20.38;62.71;101938.56;5054247;28;20551;-65
2023/06/24 03:31:51;;;;;;;9.82;4.03;;;;;;;20.43;62.36;101938.31;5067545;28;20060;-61
2023/06/24 03:34:22;;;;;;;6.13;4.00;;;;;;;20.39;62.49;101935.41;5053033;28;20408;-61
2023/06/24 03:36:49;;;;;;;7.95;4.05;;;;;;;20.40;62.09;101939.03;5054846;28;20056;-60
2023/06/24 03:39:17;;;;;;;6.45;4.05;;;;;;;20.63;61.04;101940.97;5057329;28;20044;-60
2023/06/24 03:41:45;;;;;;;8.35;4.28;;;;;;;20.84;60.09;101936.06;5037759;28;20052;-61
2023/06/24 03:44:15;;;;;;;6.70;4.10;;;;;;;20.87;60.02;101943.75;5053456;28;20051;-65
2023/06/24 03:46:42;;;;;;;6.30;3.67;;;;;;;20.97;59.68;101945.25;5056348;28;20063;-60
2023/06/24 03:49:11;;;;;;;7.18;3.95;;;;;;;20.57;60.16;101950.81;5070852;28;20052;-61
2023/06/24 03:51:38;;;;;;;8.32;3.90;;;;;;;20.39;60.60;101951.38;5037655;28;20060;-65
2023/06/24 03:54:06;;;;;;;9.93;3.80;;;;;;;20.32;61.58;101951.97;5055061;28;20041;-65
2023/06/24 03:56:33;;;;;;;6.47;4.10;;;;;;;20.42;60.99;101957.09;5059330;28;20059;-60
2023/06/24 03:59:01;;;;;;;7.20;3.30;;;;;;;20.61;60.76;101956.50;5068361;28;20056;-64
2023/06/24 04:01:32;;;;;;;5.90;3.58;;;;;;;20.69;60.64;101955.56;5071675;28;20071;-64
2023/06/24 04:04:00;;;;;;;6.78;3.80;;;;;;;20.71;60.01;101951.22;5055079;28;20153;-61
2023/06/24 04:06:27;;;;;;;11.05;3.92;;;;;;;20.83;60.37;101958.81;5068979;28;20056;-60
2023/06/24 04:08:55;;;;;;;5.53;3.58;;;;;;;20.85;60.23;101962.88;5066079;28;20045;-61
2023/06/24 04:11:22;;;;;;;6.32;3.67;;;;;;;20.78;60.86;101968.25;5073028;28;20045;-60
2023/06/24 04:13:50;;;;;;;7.93;3.90;;;;;;;20.93;60.45;101958.31;5072563;28;20040;-65
2023/06/24 04:16:17;;;;;;;6.60;4.10;;;;;;;20.78;60.96;101959.84;5075138;28;20678;-66
2023/06/24 04:18:44;;;;;;;7.18;4.03;;;;;;;20.77;61.05;101958.25;5073662;28;20072;-60
2023/06/24 04:21:12;;;;;;;6.88;3.90;;;;;;;20.66;61.43;101953.47;5057175;28;20044;-60
2023/06/24 04:23:39;;;;;;;8.82;4.25;;;;;;;20.65;61.96;101961.06;5070648;28;20060;-60
2023/06/24 04:26:07;;;;;;;8.02;4.57;;;;;;;20.55;62.37;101963.50;5036290;28;20045;-61
2023/06/24 04:28:35;;;;;;;7.97;4.32;;;;;;;20.49;62.88;101956.50;5053430;28;20059;-61
2023/06/24 04:31:04;;;;;;;8.98;4.40;;;;;;;20.47;62.42;101958.84;5045762;28;20057;-60
2023/06/24 04:33:31;;;;;;;7.60;4.20;;;;;;;20.48;62.58;101954.88;5055919;28;20049;-61
2023/06/24 04:36:00;;;;;;;6.85;3.78;;;;;;;20.77;61.93;101960.22;5062605;28;20627;-60
2023/06/24 04:38:27;;;;;;;9.07;4.28;;;;;;;21.04;61.13;101960.31;5038973;28;20049;-65
2023/06/24 04:40:55;;;;;;;7.47;4.15;;;;;;;21.12;60.24;101955.75;5061090;28;20040;-67
2023/06/24 04:43:22;;;;;;;7.93;4.53;;;;;;;20.77;61.21;101957.41;5053031;28;20052;-65
2023/06/24 04:45:50;;;;;;;8.57;4.10;;;;;;;20.76;61.47;101950.19;5074061;28;20700;-61
2023/06/24 04:48:17;;;;;;;7.72;4.40;;;;;;;20.76;61.06;101953.00;5065026;28;20152;-60
2023/06/24 04:50:44;;;;;;;8.70;4.20;;;;;;;21.02;61.02;101953.44;5071900;28;20059;-65
2023/06/24 04:53:13;;;;;;;10.32;4.45;;;;;;;21.17;60.65;101958.28;5073669;28;20127;-65
2023/06/24 04:55:40;;;;;;;6.10;4.18;;;;;;;20.97;60.55;101964.88;5074160;28;20403;-65
2023/06/24 04:58:07;;;;;;;8.18;4.10;;;;;;;21.15;60.67;101955.84;5056568;28;20052;-65
2023/06/24 05:00:35;;;;;;;7.88;4.00;;;;;;;21.32;59.66;101965.16;5062138;28;20044;-65
2023/06/24 05:03:02;;;;;;;9.55;4.00;;;;;;;21.30;59.36;101962.69;5053144;28;20049;-61
2023/06/24 05:05:30;;;;;;;7.63;4.05;;;;;;;21.29;59.41;101951.84;5066227;28;20052;-61
2023/06/24 05:08:01;;;;;;;7.47;4.40;;;;;;;21.22;59.38;101958.88;5073192;28;20045;-64
2023/06/24 05:10:28;;;;;;;7.50;4.38;;;;;;;21.25;59.20;101963.75;5074106;28;20057;-67
2023/06/24 05:12:56;;;;;;;7.65;4.40;;;;;;;20.97;59.80;101956.47;5057695;28;20108;-62
2023/06/24 05:15:23;;;;;;;6.68;4.15;;;;;;;20.70;61.30;101958.00;5066533;28;20106;-62
2023/06/24 05:17:50;;;;;;;8.85;4.57;;;;;;;20.91;61.04;101953.09;5079329;28;20052;-62
2023/06/24 05:20:20;;;;;;;7.57;4.35;;;;;;;20.86;60.91;101955.31;5072274;28;20049;-64
2023/06/24 05:22:47;;;;;;;7.43;4.30;;;;;;;20.69;60.89;101961.16;5070706;28;20053;-67
2023/06/24 05:25:14;;;;;;;8.63;4.10;;;;;;;20.90;60.02;101959.03;5052621;28;20504;-65
2023/06/24 05:27:44;;;;;;;8.13;3.88;;;;;;;21.29;58.24;101957.47;5063983;28;20056;-60
2023/06/24 05:30:12;;;;;;;9.25;4.07;;;;;;;21.27;58.33;101960.59;5073378;28;20059;-61
2023/06/24 05:32:40;;;;;;;7.15;4.20;;;;;;;21.33;58.39;101961.97;5072562;28;20048;-65
2023/06/24 05:35:07;;;;;;;7.43;4.28;;;;;;;21.25;58.22;101965.75;5054367;28;20556;-65
2023/06/24 05:37:35;;;;;;;8.50;4.00;;;;;;;21.28;57.38;101959.44;5064594;28;20052;-66
2023/06/24 05:40:04;;;;;;;8.05;4.65;;;;;;;21.14;57.57;101954.22;5056896;28;20052;-62
2023/06/24 05:42:32;;;;;;;8.95;4.10;;;;;;;21.11;57.32;101963.31;5060179;28;20053;-61
2023/06/24 05:44:59;;;;;;;8.50;4.40;;;;;;;21.36;56.56;101961.25;5058060;28;20060;-61
2023/06/24 05:47:27;;;;;;;7.75;4.35;;;;;;;21.31;56.54;101960.69;5055064;28;20067;-61
2023/06/24 05:49:54;;;;;;;6.35;3.92;;;;;;;21.35;55.73;101967.22;5070835;28;20056;-66
2023/06/24 05:52:21;;;;;;;7.78;4.10;;;;;;;21.21;56.21;101962.03;5072366;28;20048;-66
2023/06/24 05:54:49;;;;;;;10.57;3.95;;;;;;;21.22;55.71;101963.66;5075168;28;20053;-65
2023/06/24 05:57:16;;;;;;;11.70;4.45;;;;;;;21.35;55.29;101956.00;5060645;28;20045;-65
2023/06/24 05:59:44;;;;;;;6.97;4.22;;;;;;;21.65;55.07;101962.91;5059268;28;20056;-65
2023/06/24 06:02:11;;;;;;;9.05;5.07;;;;;;;21.69;55.17;101961.03;5070800;28;20048;-66
2023/06/24 06:04:39;;;;;;;10.27;4.38;;;;;;;21.70;55.75;101969.06;5071606;28;20063;-60
2023/06/24 06:07:07;;;;;;;9.80;4.75;;;;;;;21.36;56.64;101955.66;5071927;28;20056;-60
2023/06/24 06:09:34;;;;;;;6.97;4.40;;;;;;;21.23;56.75;101959.69;5071182;28;20076;-61
2023/06/24 06:12:02;;;;;;;8.50;4.88;;;;;;;21.47;56.71;101961.56;5073307;28;20044;-60
2023/06/24 06:14:30;;;;;;;7.40;4.53;;;;;;;21.37;55.78;101965.72;5072593;28;20056;-61
2023/06/24 06:16:57;;;;;;;9.30;4.40;;;;;;;21.24;56.77;101959.31;5080575;28;20055;-62
2023/06/24 06:19:24;;;;;;;5.70;3.78;;;;;;;21.33;56.63;101959.19;5071901;28;20059;-61
2023/06/24 06:21:53;;;;;;;7.28;4.30;;;;;;;21.39;56.31;101956.94;5071325;28;20048;-62
2023/06/24 06:24:20;;;;;;;8.77;4.57;;;;;;;21.37;55.88;101964.88;5072644;28;20047;-61
2023/06/24 06:26:48;;;;;;;11.30;4.30;;;;;;;21.60;55.90;101963.16;5072982;28;20075;-61
2023/06/24 06:29:16;;;;;;;6.68;4.35;;;;;;;21.80;55.06;101962.97;5071016;28;20573;-64
2023/06/24 06:31:43;;;;;;;10.90;4.78;;;;;;;21.42;56.16;101959.84;5071171;28;20064;-65
2023/06/24 06:34:10;;;;;;;7.32;4.47;;;;;;;21.42;56.07;101964.63;5054712;28;20052;-61
2023/06/24 06:36:38;;;;;;;9.68;5.03;;;;;;;21.46;56.01;101969.19;5065605;28;20059;-65
2023/06/24 06:39:05;;;;;;;7.68;4.55;;;;;;;21.29;55.59;101963.84;5051248;28;20057;-65
2023/06/24 06:41:32;;;;;;;9.25;4.18;;;;;;;21.56;55.52;101957.44;5064314;28;20052;-65
2023/06/24 06:44:00;;;;;;;11.40;4.50;;;;;;;21.65;55.25;101963.72;5052528;28;20052;-65
2023/06/24 06:46:27;;;;;;;14.55;7.95;;;;;;;21.62;55.24;101961.63;5059083;28;20060;-66
2023/06/24 06:48:55;;;;;;;9.27;5.05;;;;;;;21.33;56.78;101969.56;5072455;28;20122;-65
2023/06/24 06:51:24;;;;;;;11.75;4.15;;;;;;;21.17;56.67;101966.69;5068244;28;20049;-65
2023/06/24 06:53:51;;;;;;;7.00;4.65;;;;;;;21.30;55.70;101967.47;5057634;28;20056;-66
2023/06/24 06:56:22;;;;;;;8.55;4.07;;;;;;;21.37;55.97;101968.50;5053609;28;20051;-65
2023/06/24 06:58:50;;;;;;;7.22;4.20;;;;;;;21.44;55.69;101965.91;5046771;28;20041;-66
2023/06/24 07:01:18;;;;;;;9.27;4.47;;;;;;;21.56;55.60;101968.66;5073714;28;20712;-66
2023/06/24 07:03:45;;;;;;;8.38;4.55;;;;;;;21.68;55.76;101953.75;5073162;28;20056;-59
2023/06/24 07:06:13;;;;;;;10.05;7.25;;;;;;;22.07;54.83;101959.28;5056771;28;20060;-60
2023/06/24 07:08:40;;;;;;;9.52;4.30;;;;;;;22.05;54.04;101953.22;5038480;28;20405;-60
2023/06/24 07:11:07;;;;;;;7.85;4.70;;;;;;;22.11;52.91;101956.56;5058624;28;20132;-65
2023/06/24 07:13:35;;;;;;;10.77;4.25;;;;;;;22.43;52.19;101963.00;5066563;28;20052;-66
2023/06/24 07:16:02;;;;;;;7.65;3.88;;;;;;;22.44;51.20;101957.00;5064640;28;20040;-61
2023/06/24 07:18:30;;;;;;;10.77;4.20;;;;;;;22.43;51.97;101955.38;5079360;28;20045;-61
2023/06/24 07:21:00;;;;;;;10.05;4.20;;;;;;;22.67;51.51;101952.41;5056116;28;20566;-65
2023/06/24 07:23:27;;;;;;;7.30;4.05;;;;;;;22.99;51.14;101953.13;5055713;28;20049;-61
2023/06/24 07:25:54;;;;;;;7.53;4.20;;;;;;;22.70;51.01;101951.66;5056085;28;20134;-66
2023/06/24 07:28:22;;;;;;;8.80;3.97;;;;;;;22.61;51.06;101962.28;5055727;28;20053;-61
2023/06/24 07:30:49;;;;;;;8.30;4.03;;;;;;;22.78;49.96;101959.09;5058328;28;20051;-62
2023/06/24 07:33:16;;;;;;;6.13;3.67;;;;;;;23.04;48.41;101955.66;5066005;28;20060;-61
2023/06/24 07:35:44;;;;;;;8.30;4.00;;;;;;;23.18;48.09;101944.72;5063829;28;20171;-63
2023/06/24 07:38:12;;;;;;;6.28;4.15;;;;;;;23.57;47.14;101937.94;5055844;28;20044;-63
2023/06/24 07:40:39;;;;;;;8.93;4.38;;;;;;;23.99;46.33;101941.56;5056541;28;20056;-62
2023/06/24 07:43:06;;;;;;;7.72;4.20;;;;;;;24.32;45.52;101938.94;5066435;28;20659;-67
2023/06/24 07:45:34;;;;;;;9.63;4.88;;;;;;;24.53;45.04;101944.09;5058816;28;20076;-68
2023/06/24 07:48:02;;;;;;;9.65;5.15;;;;;;;24.69;45.05;101941.13;5057206;28;20060;-67
2023/06/24 07:50:31;;;;;;;8.68;6.15;;;;;;;25.33;45.22;101950.09;5062640;28;20067;-66
2023/06/24 07:52:58;;;;;;;7.18;3.80;;;;;;;24.29;45.62;101942.50;5058237;28;20048;-66
2023/06/24 07:55:25;;;;;;;5.90;3.50;;;;;;;23.86;46.88;101942.09;5075379;28;20048;-62
2023/06/24 07:57:53;;;;;;;8.80;3.95;;;;;;;24.52;45.40;101942.47;5056413;28;20040;-62
2023/06/24 08:00:20;;;;;;;8.02;3.65;;;;;;;25.16;43.85;101938.59;5072263;28;20048;-62
2023/06/24 08:02:47;;;;;;;8.85;3.95;;;;;;;25.52;43.26;101938.69;5071849;28;20068;-63
2023/06/24 08:05:15;;;;;;;8.23;3.80;;;;;;;25.49;43.27;101935.81;5055636;28;20041;-62
2023/06/24 08:07:42;;;;;;;8.82;3.30;;;;;;;25.67;42.86;101936.00;5053527;28;20061;-62
2023/06/24 08:10:09;;;;;;;8.45;3.55;;;;;;;25.87;41.55;101941.09;5053771;28;20057;-62
2023/06/24 08:12:37;;;;;;;8.25;3.70;;;;;;;25.12;43.14;101938.53;5054759;28;20075;-67
2023/06/24 08:15:07;;;;;;;9.02;3.75;;;;;;;25.18;43.54;101928.56;5054769;28;20049;-66
2023/06/24 08:17:34;;;;;;;7.93;3.97;;;;;;;25.06;43.56;101928.81;5077655;28;20739;-66
2023/06/24 08:20:03;;;;;;;6.65;3.90;;;;;;;25.25;43.46;101933.47;5065838;28;20044;-66
2023/06/24 08:22:31;;;;;;;15.07;4.50;;;;;;;25.23;43.51;101930.22;5075033;28;20063;-66
2023/06/24 08:24:58;;;;;;;8.73;3.72;;;;;;;25.60;43.22;101928.28;5073539;28;20299;-66
2023/06/24 08:27:26;;;;;;;8.73;4.00;;;;;;;25.53;42.27;101928.22;5074858;28;20416;-67
2023/06/24 08:29:53;;;;;;;9.95;4.28;;;;;;;25.12;43.26;101927.25;5073110;28;20048;-61
2023/06/24 08:32:20;;;;;;;9.70;4.03;;;;;;;25.04;44.00;101931.19;5075314;28;20415;-62
2023/06/24 08:34:48;;;;;;;10.27;3.88;;;;;;;25.08;43.35;101929.25;5074451;28;20456;-61
2023/06/24 08:37:16;;;;;;;8.13;4.25;;;;;;;24.34;45.23;101922.47;5074645;28;20047;-61
2023/06/24 08:39:44;;;;;;;9.90;4.05;;;;;;;24.60;45.31;101929.31;5072899;28;20437;-61
2023/06/24 08:42:11;;;;;;;8.27;3.55;;;;;;;24.92;44.47;101919.34;5072083;28;20523;-62
2023/06/24 08:44:38;;;;;;;8.60;4.03;;;;;;;24.87;44.40;101916.84;5073632;28;20052;-62
2023/06/24 08:47:06;;;;;;;8.40;4.30;;;;;;;25.05;44.71;101917.91;5045027;28;20053;-62
2023/06/24 08:49:39;;;;;;;13.13;4.28;;;;;;;25.07;44.08;101915.53;5054763;28;20045;-61
2023/06/24 08:52:13;;;;;;;10.27;5.93;;;;;;;25.14;44.47;101915.63;5053365;28;20676;-62
2023/06/24 08:54:46;;;;;;;8.50;4.00;;;;;;;24.76;44.98;101908.25;5052952;28;20501;-62
2023/06/24 08:57:15;;;;;;;9.25;4.00;;;;;;;24.89;45.36;101900.38;5062478;28;20052;-62
2023/06/24 08:59:42;;;;;;;10.85;3.88;;;;;;;25.15;45.06;101906.78;5073586;28;20045;-62
2023/06/24 09:02:11;;;;;;;9.23;5.00;;;;;;;25.12;45.29;101901.09;5072820;28;20044;-62
2023/06/24 09:04:40;;;;;;;7.30;4.32;;;;;;;25.46;45.14;101900.72;5071210;28;20059;-62
2023/06/24 09:07:07;;;;;;;9.68;4.50;;;;;;;25.29;45.30;101897.66;5062833;28;20055;-62
2023/06/24 09:09:44;;;;;;;8.63;4.47;;;;;;;25.73;45.12;101895.78;5052966;28;20061;-62
2023/06/24 09:12:14;;;;;;;8.02;4.35;;;;;;;25.86;44.44;101894.28;5053956;28;20052;-61
2023/06/24 09:14:48;;;;;;;8.48;4.90;;;;;;;25.98;44.73;101888.34;5052718;28;20045;-63
2023/06/24 09:17:16;;;;;;;7.35;4.60;;;;;;;26.56;42.82;101877.94;5072913;28;20044;-61
2023/06/24 09:19:43;;;;;;;6.32;4.32;;;;;;;26.37;43.28;101883.88;5071925;28;20063;-61
2023/06/24 09:22:17;;;;;;;8.77;4.45;;;;;;;26.52;43.51;101879.91;5070629;28;20063;-62
2023/06/24 09:24:49;;;;;;;10.07;4.22;;;;;;;26.44;43.58;101886.75;5072135;28;20359;-62
2023/06/24 09:27:19;;;;;;;8.52;4.50;;;;;;;25.86;44.24;101882.16;5070351;28;20053;-60
2023/06/24 09:29:47;;;;;;;7.43;4.07;;;;;;;25.77;44.82;101885.31;5054191;28;20072;-62
2023/06/24 09:32:15;;;;;;;8.93;4.97;;;;;;;25.31;45.67;101881.19;5062606;28;20056;-62
2023/06/24 09:34:43;;;;;;;8.95;6.28;;;;;;;25.79;45.40;101865.16;5071905;28;20060;-61
2023/06/24 09:37:12;;;;;;;8.60;4.85;;;;;;;26.09;44.71;101863.06;5073404;28;20044;-63
2023/06/24 09:39:40;;;;;;;8.60;4.45;;;;;;;26.44;44.43;101861.31;5055051;28;20048;-60
2023/06/24 09:42:08;;;;;;;7.68;4.00;;;;;;;26.67;43.87;101855.41;5070866;28;20041;-61
2023/06/24 09:44:35;;;;;;;10.30;4.63;;;;;;;26.65;44.07;101854.97;5053200;28;20049;-61
2023/06/24 09:47:03;;;;;;;7.43;4.18;;;;;;;26.37;43.82;101858.44;5051555;28;20051;-61
2023/06/24 09:49:30;;;;;;;7.43;4.07;;;;;;;25.95;44.65;101852.44;5057164;28;20057;-61
2023/06/24 09:51:59;;;;;;;12.27;4.57;;;;;;;25.99;44.17;101844.81;5057845;28;20059;-62
2023/06/24 09:54:28;;;;;;;7.63;4.90;;;;;;;25.79;44.18;101851.06;5073485;28;20044;-63
2023/06/24 09:57:02;;;;;;;8.00;4.60;;;;;;;25.85;44.82;101846.69;5073092;28;20055;-61
2023/06/24 09:59:30;;;;;;;8.13;4.70;;;;;;;26.01;44.82;101839.59;5073007;28;20044;-61
2023/06/24 10:01:58;;;;;;;9.35;4.80;;;;;;;26.16;44.69;101840.50;5071913;28;20052;-62
2023/06/24 10:04:27;;;;;;;8.30;5.00;;;;;;;26.33;43.71;101837.00;5072371;28;20056;-62
2023/06/24 10:06:55;;;;;;;15.13;7.03;;;;;;;26.16;43.94;101827.22;5072597;28;20048;-62
2023/06/24 10:09:22;;;;;;;8.73;5.00;;;;;;;26.37;43.85;101826.53;5073111;28;20060;-63
2023/06/24 10:11:50;;;;;;;13.82;8.00;;;;;;;26.60;43.26;101827.91;5073122;28;20048;-61
2023/06/24 10:14:18;;;;;;;11.93;5.65;;;;;;;26.60;43.52;101825.06;5073106;28;20535;-63
2023/06/24 10:16:45;;;;;;;7.78;4.38;;;;;;;26.93;43.34;101806.25;5072814;28;20079;-62
2023/06/24 10:19:19;;;;;;;8.05;4.78;;;;;;;26.65;43.58;101813.38;5071315;28;20033;-62
2023/06/24 10:21:54;;;;;;;6.93;4.50;;;;;;;27.02;43.68;101803.88;5055814;28;20060;-62
2023/06/24 10:24:32;;;;;;;8.50;4.53;;;;;;;26.83;43.27;101807.03;5035143;28;20052;-62
2023/06/24 10:27:01;;;;;;;9.63;4.57;;;;;;;26.80;42.97;101802.19;5051455;28;20523;-69
2023/06/24 10:29:35;;;;;;;8.93;4.45;;;;;;;26.58;42.62;101801.22;5052442;28;20056;-67
2023/06/24 10:32:07;;;;;;;10.10;4.65;;;;;;;26.65;43.07;101802.09;5063782;28;20514;-66
2023/06/24 10:34:38;;;;;;;9.05;5.10;;;;;;;26.46;43.32;101791.09;5079502;28;20051;-68
2023/06/24 10:37:24;;;;;;;10.77;5.13;;;;;;;26.38;43.20;101782.94;5079000;28;20048;-70
2023/06/24 10:39:52;;;;;;;6.70;4.68;;;;;;;26.67;43.09;101791.19;5077738;28;20051;-67
2023/06/24 10:42:37;;;;;;;8.35;4.70;;;;;;;26.81;42.13;101772.69;5079283;28;20045;-66
2023/06/24 10:45:15;;;;;;;8.00;4.85;;;;;;;26.66;42.87;101783.91;5083987;28;20063;-68
2023/06/24 10:47:44;;;;;;;8.85;5.07;;;;;;;27.06;42.43;101770.75;5080875;28;20047;-67
2023/06/24 10:50:18;;;;;;;11.30;4.93;;;;;;;27.34;41.23;101770.81;5098532;28;20640;-67
2023/06/24 10:52:55;;;;;;;10.05;5.28;;;;;;;27.07;41.96;101770.34;5099368;28;20070;-67
2023/06/24 10:55:26;;;;;;;8.65;5.10;;;;;;;27.15;41.68;101771.16;5099016;28;20059;-66
2023/06/24 10:57:53;;;;;;;10.57;4.60;;;;;;;27.23;41.59;101770.75;5083963;28;20045;-67
2023/06/24 11:00:22;;;;;;;10.27;4.85;;;;;;;27.21;41.62;101761.91;5077486;28;20439;-67
2023/06/24 11:02:49;;;;;;;12.82;4.53;;;;;;;27.17;41.42;101760.25;5077648;28;20049;-62
2023/06/24 11:05:17;;;;;;;10.25;5.25;;;;;;;27.00;41.25;101767.50;5079373;28;20044;-62
2023/06/24 11:07:45;;;;;;;9.50;4.97;;;;;;;26.87;42.00;101754.13;5079121;28;20055;-63
2023/06/24 11:10:15;;;;;;;9.35;4.45;;;;;;;26.67;41.58;101754.44;5077750;28;20063;-62
2023/06/24 11:12:43;;;;;;;8.48;4.70;;;;;;;26.61;40.97;101755.19;5078941;28;20051;-67
2023/06/24 11:15:11;;;;;;;8.40;4.88;;;;;;;26.70;40.94;101754.88;5077647;28;20049;-67
2023/06/24 11:17:40;;;;;;;6.90;4.13;;;;;;;26.60;40.68;101759.25;5078814;28;20057;-67
2023/06/24 11:20:08;;;;;;;9.63;4.30;;;;;;;26.77;40.19;101752.06;5079024;28;20044;-67
2023/06/24 11:22:37;;;;;;;6.82;3.97;;;;;;;26.97;40.01;101737.16;5077795;28;20439;-69
2023/06/24 11:25:05;;;;;;;8.27;4.45;;;;;;;27.35;40.07;101741.31;5079041;28;20049;-67
2023/06/24 11:27:32;;;;;;;8.60;4.93;;;;;;;27.55;39.60;101736.88;5078884;28;20488;-67
2023/06/24 11:30:04;;;;;;;10.38;5.10;;;;;;;27.52;39.37;101735.69;5079218;28;20052;-66
2023/06/24 11:32:36;;;;;;;10.02;5.00;;;;;;;27.12;40.64;101729.53;5078875;28;20041;-67